Time;durP1;ratioP1;P1;durP2;ratioP2;P2;SDS_P1;SDS_P2;PMS_P1;PMS_P2;Temp;Humidity;BMP_temperature;BMP_pressure;BME280_temperature;BME280_humidity;BME280_pressure;Samples;Min_cycle;Max_cycle;Signal;HPM_P1;HPM_P2
2023/11/09 00:01:39;;;;;;;0.60;0.50;;;7.30;99.90;;;;;;5132606;27;20718;-55
2023/11/09 00:04:07;;;;;;;1.15;0.40;;;7.30;1.00;;;;;;5133385;27;20414;-56
2023/11/09 00:06:35;;;;;;;1.50;0.40;;;7.20;1.00;;;;;;5132469;27;20478;-54
2023/11/09 00:09:02;;;;;;;0.77;0.50;;;7.20;1.00;;;;;;5131745;27;20448;-56
2023/11/09 00:11:29;;;;;;;0.80;0.50;;;7.20;1.00;;;;;;5133393;27;20422;-55
2023/11/09 00:13:56;;;;;;;0.70;0.50;;;7.20;1.00;;;;;;5132147;27;20841;-55
2023/11/09 00:16:23;;;;;;;0.70;0.50;;;7.20;1.00;;;;;;5132420;27;20502;-54
2023/11/09 00:18:52;;;;;;;0.60;0.40;;;7.20;1.00;;;;;;5132946;27;20488;-56
2023/11/09 00:21:20;;;;;;;0.80;0.50;;;7.20;1.00;;;;;;5132614;27;20419;-52
2023/11/09 00:23:47;;;;;;;0.70;0.50;;;7.20;1.00;;;;;;5132821;27;20418;-55
2023/11/09 00:26:14;;;;;;;0.80;0.50;;;7.20;99.90;;;;;;5133181;27;20479;-54
2023/11/09 00:28:42;;;;;;;0.70;0.50;;;7.20;1.00;;;;;;5131794;27;20504;-54
2023/11/09 00:31:09;;;;;;;0.90;0.50;;;7.10;1.00;;;;;;5132925;27;20800;-55
2023/11/09 00:33:36;;;;;;;0.70;0.40;;;7.10;1.00;;;;;;5132666;27;20423;-56
2023/11/09 00:36:03;;;;;;;1.20;0.50;;;7.00;1.00;;;;;;5132709;27;20430;-55
2023/11/09 00:38:31;;;;;;;0.80;0.50;;;7.10;1.00;;;;;;5133458;27;20483;-55
2023/11/09 00:40:58;;;;;;;1.00;0.50;;;7.10;1.00;;;;;;5132875;27;20476;-54
2023/11/09 00:43:26;;;;;;;1.30;0.50;;;7.10;1.00;;;;;;5131213;27;20477;-54
2023/11/09 00:45:53;;;;;;;1.20;0.60;;;7.00;1.00;;;;;;5131281;27;20450;-55
2023/11/09 00:48:20;;;;;;;0.77;0.50;;;6.90;1.00;;;;;;5130570;27;20501;-53
2023/11/09 00:50:47;;;;;;;0.80;0.43;;;6.90;1.00;;;;;;5131043;27;21049;-54
2023/11/09 00:53:14;;;;;;;0.70;0.40;;;6.90;1.00;;;;;;5131594;27;20410;-54
2023/11/09 00:55:45;;;;;;;0.90;0.50;;;6.80;1.00;;;;;;5130491;27;20479;-56
2023/11/09 00:58:12;;;;;;;0.80;0.50;;;6.80;99.90;;;;;;5132292;27;20538;-55
2023/11/09 01:00:39;;;;;;;0.80;0.50;;;6.90;99.90;;;;;;5131755;27;20463;-53
2023/11/09 01:03:06;;;;;;;0.70;0.50;;;6.80;99.90;;;;;;5133347;27;20507;-56
2023/11/09 01:05:33;;;;;;;0.90;0.50;;;6.80;99.90;;;;;;5133586;27;20877;-54
2023/11/09 01:08:00;;;;;;;0.88;0.50;;;6.80;1.00;;;;;;5133642;27;20423;-56
2023/11/09 01:10:27;;;;;;;0.90;0.57;;;6.80;1.00;;;;;;5133548;27;20414;-54
2023/11/09 01:12:56;;;;;;;0.80;0.40;;;6.80;99.90;;;;;;5132904;27;20429;-54
2023/11/09 01:15:23;;;;;;;0.70;0.40;;;6.80;1.00;;;;;;5131787;27;20471;-57
2023/11/09 01:18:03;;;;;;;1.02;0.40;;;6.80;1.00;;;;;;5132727;27;20467;-53
2023/11/09 01:20:31;;;;;;;1.20;0.50;;;6.80;1.00;;;;;;5130895;27;20434;-54
2023/11/09 01:22:58;;;;;;;0.70;0.50;;;6.80;1.00;;;;;;5132331;27;20425;-54
2023/11/09 01:25:25;;;;;;;0.80;0.47;;;6.80;99.90;;;;;;5131646;27;20426;-53
2023/11/09 01:27:52;;;;;;;1.40;0.40;;;6.80;99.90;;;;;;5131755;27;20426;-52
2023/11/09 01:30:21;;;;;;;0.88;0.50;;;6.90;99.90;;;;;;5131498;27;20463;-50
2023/11/09 01:32:48;;;;;;;0.65;0.40;;;6.90;99.90;;;;;;5130518;27;20510;-52
2023/11/09 01:35:15;;;;;;;0.80;0.40;;;6.90;99.90;;;;;;5131041;27;20495;-55
2023/11/09 01:37:42;;;;;;;0.70;0.30;;;6.90;1.00;;;;;;5130364;27;20422;-53
2023/11/09 01:40:11;;;;;;;1.33;0.50;;;7.00;1.00;;;;;;5133785;27;20856;-55
2023/11/09 01:42:38;;;;;;;0.80;0.50;;;7.00;1.00;;;;;;5133679;27;20430;-55
2023/11/09 01:45:06;;;;;;;0.80;0.40;;;7.10;1.00;;;;;;5133896;27;20410;-51
2023/11/09 01:47:35;;;;;;;0.60;0.40;;;7.10;1.00;;;;;;5134536;27;20908;-52
2023/11/09 01:50:02;;;;;;;0.90;0.40;;;7.10;1.00;;;;;;5135317;27;20486;-55
2023/11/09 01:52:31;;;;;;;0.68;0.40;;;7.10;1.00;;;;;;5134278;27;20414;-54
2023/11/09 01:54:58;;;;;;;0.70;0.40;;;7.10;99.90;;;;;;5135345;27;20430;-54
2023/11/09 01:57:26;;;;;;;0.60;0.40;;;7.10;99.90;;;;;;5117770;27;20888;-57
2023/11/09 01:59:54;;;;;;;0.90;0.50;;;7.10;99.90;;;;;;5135004;27;20426;-56
2023/11/09 02:02:22;;;;;;;0.60;0.40;;;7.00;99.90;;;;;;5134547;27;20426;-56
2023/11/09 02:04:50;;;;;;;0.80;0.40;;;6.90;1.00;;;;;;5135751;27;20650;-54
2023/11/09 02:07:19;;;;;;;0.70;0.40;;;6.90;1.00;;;;;;5135886;27;20505;-55
2023/11/09 02:09:48;;;;;;;0.70;0.30;;;6.90;1.00;;;;;;5135730;27;20422;-57
2023/11/09 02:12:16;;;;;;;0.70;0.40;;;7.00;1.00;;;;;;5134580;27;20410;-52
2023/11/09 02:14:43;;;;;;;0.60;0.40;;;7.10;99.90;;;;;;5134077;27;20410;-57
2023/11/09 02:17:12;;;;;;;0.70;0.45;;;7.10;99.90;;;;;;5134948;27;20426;-58
2023/11/09 02:19:39;;;;;;;0.70;0.40;;;7.10;99.90;;;;;;5135025;27;20434;-56
2023/11/09 02:22:08;;;;;;;0.70;0.40;;;7.10;99.90;;;;;;5135687;27;20502;-53
2023/11/09 02:24:36;;;;;;;0.70;0.40;;;7.00;99.90;;;;;;5135149;27;20430;-55
2023/11/09 02:27:05;;;;;;;0.65;0.30;;;7.00;78.00;;;;;;5134367;27;20414;-53
2023/11/09 02:29:32;;;;;;;0.90;0.40;;;7.10;28.50;;;;;;5134741;27;20471;-54
2023/11/09 02:32:00;;;;;;;0.70;0.40;;;7.10;1.00;;;;;;5134806;27;20426;-55
2023/11/09 02:34:29;;;;;;;1.30;0.40;;;7.20;1.00;;;;;;5134161;27;20518;-55
2023/11/09 02:36:57;;;;;;;0.70;0.40;;;7.10;1.00;;;;;;5132261;27;20429;-52
2023/11/09 02:39:24;;;;;;;0.70;0.40;;;7.10;1.00;;;;;;5132393;27;20426;-54
2023/11/09 02:41:52;;;;;;;0.70;0.40;;;7.20;1.00;;;;;;5133854;27;21119;-54
2023/11/09 02:44:19;;;;;;;1.00;0.40;;;7.20;1.00;;;;;;5132603;27;20426;-56
2023/11/09 02:46:46;;;;;;;0.70;0.40;;;7.20;1.00;;;;;;5133346;27;20716;-56
2023/11/09 02:49:13;;;;;;;0.70;0.40;;;7.20;1.00;;;;;;5132825;27;20422;-56
2023/11/09 02:51:40;;;;;;;0.98;0.43;;;7.20;1.00;;;;;;5132839;27;20697;-53
2023/11/09 02:54:07;;;;;;;0.88;0.40;;;7.20;1.00;;;;;;5134467;27;20825;-55
2023/11/09 02:56:36;;;;;;;0.60;0.30;;;7.30;1.00;;;;;;5134025;27;20480;-55
2023/11/09 02:59:05;;;;;;;0.77;0.40;;;7.20;99.90;;;;;;5133879;27;20414;-51
2023/11/09 03:01:32;;;;;;;0.90;0.30;;;7.20;99.90;;;;;;5134037;27;20430;-54
2023/11/09 03:03:59;;;;;;;0.60;0.40;;;7.30;99.90;;;;;;5134593;27;20504;-54
2023/11/09 03:06:27;;;;;;;0.70;0.40;;;7.30;99.90;;;;;;5133913;27;20783;-54
2023/11/09 03:08:54;;;;;;;1.33;0.40;;;7.30;99.90;;;;;;5135281;27;20501;-55
2023/11/09 03:11:21;;;;;;;0.70;0.40;;;7.30;99.90;;;;;;5134586;27;20830;-51
2023/11/09 03:13:48;;;;;;;0.70;0.30;;;7.30;99.90;;;;;;5133052;27;20467;-56
2023/11/09 03:16:17;;;;;;;0.68;0.40;;;7.20;99.90;;;;;;5133074;27;20420;-53
2023/11/09 03:18:44;;;;;;;1.90;0.40;;;7.20;99.90;;;;;;5133624;27;20418;-53
2023/11/09 03:24:34;;;;;;;0.70;0.40;;;7.20;99.90;;;;;;5131733;27;20378;-51
2023/11/09 03:27:02;;;;;;;0.90;0.30;;;7.20;99.90;;;;;;5132060;27;20414;-52
2023/11/09 03:29:29;;;;;;;0.80;0.30;;;7.20;99.90;;;;;;5131838;27;20418;-55
2023/11/09 03:31:58;;;;;;;0.63;0.30;;;7.20;99.90;;;;;;5132248;27;20595;-53
2023/11/09 03:34:25;;;;;;;0.60;0.40;;;7.20;99.90;;;;;;5132066;27;20730;-53
2023/11/09 03:36:53;;;;;;;0.60;0.35;;;7.10;99.90;;;;;;5134172;27;20494;-54
2023/11/09 03:39:20;;;;;;;0.80;0.40;;;7.20;99.90;;;;;;5134501;27;20414;-53
2023/11/09 03:41:47;;;;;;;0.80;0.40;;;7.10;99.90;;;;;;5133989;27;20418;-55
2023/11/09 03:44:14;;;;;;;0.60;0.35;;;7.10;1.00;;;;;;5132135;27;20425;-53
2023/11/09 03:46:41;;;;;;;1.63;0.40;;;7.10;1.00;;;;;;5132913;27;20419;-56
2023/11/09 03:49:12;;;;;;;0.85;0.30;;;7.00;1.00;;;;;;5132474;27;20422;-54
2023/11/09 03:51:39;;;;;;;0.88;0.40;;;7.00;1.00;;;;;;5131383;27;20702;-56
2023/11/09 03:54:06;;;;;;;0.70;0.40;;;6.90;1.00;;;;;;5131872;27;20467;-55
2023/11/09 03:56:35;;;;;;;0.70;0.35;;;6.90;1.00;;;;;;5132576;27;20414;-54
2023/11/09 03:59:02;;;;;;;0.80;0.30;;;7.00;99.90;;;;;;5133048;27;20418;-55
2023/11/09 04:01:29;;;;;;;0.70;0.40;;;7.00;1.00;;;;;;5133468;27;20427;-54
2023/11/09 04:03:56;;;;;;;0.60;0.30;;;7.00;95.90;;;;;;5133301;27;20846;-54
2023/11/09 04:06:24;;;;;;;0.55;0.30;;;7.00;99.90;;;;;;5133744;27;20506;-56
2023/11/09 04:08:52;;;;;;;0.50;0.30;;;7.00;99.90;;;;;;5133546;27;20755;-53
2023/11/09 04:11:20;;;;;;;0.90;0.40;;;7.00;99.90;;;;;;5133198;27;20425;-53
2023/11/09 04:13:47;;;;;;;0.60;0.30;;;6.90;99.90;;;;;;5133490;27;20490;-51
2023/11/09 04:16:14;;;;;;;1.90;0.40;;;6.90;99.90;;;;;;5133171;27;20479;-53
2023/11/09 04:18:41;;;;;;;0.70;0.40;;;6.90;99.90;;;;;;5132663;27;20768;-50
2023/11/09 04:21:10;;;;;;;0.50;0.30;;;7.00;1.00;;;;;;5132982;27;20767;-51
2023/11/09 04:23:38;;;;;;;0.70;0.40;;;7.00;99.90;;;;;;5132822;27;20407;-49
2023/11/09 04:26:08;;;;;;;0.68;0.40;;;6.90;99.90;;;;;;5132654;27;20422;-51
2023/11/09 04:28:35;;;;;;;0.90;0.43;;;6.90;99.90;;;;;;5132834;27;20705;-55
2023/11/09 04:31:04;;;;;;;0.70;0.40;;;6.90;99.90;;;;;;5133189;27;20482;-55
2023/11/09 04:33:32;;;;;;;0.82;0.40;;;6.80;99.90;;;;;;5132816;27;20419;-55
2023/11/09 04:36:00;;;;;;;0.60;0.40;;;6.80;1.00;;;;;;5133268;27;20874;-53
2023/11/09 04:38:30;;;;;;;1.90;0.40;;;6.80;1.00;;;;;;5132017;27;20487;-52
2023/11/09 04:41:03;;;;;;;0.60;0.30;;;6.80;1.00;;;;;;5130940;27;20737;-52
2023/11/09 04:43:31;;;;;;;1.00;0.40;;;6.80;1.00;;;;;;5130743;27;20430;-54
2023/11/09 04:46:05;;;;;;;0.90;0.40;;;6.80;1.00;;;;;;5130817;27;20455;-52
2023/11/09 04:48:33;;;;;;;0.70;0.40;;;6.80;1.00;;;;;;5130996;27;20422;-53
2023/11/09 04:51:03;;;;;;;1.08;0.50;;;6.80;1.00;;;;;;5131386;27;20411;-53
2023/11/09 04:53:31;;;;;;;0.70;0.40;;;6.90;2.70;;;;;;5131558;27;20860;-55
2023/11/09 04:56:07;;;;;;;0.90;0.40;;;6.90;1.00;;;;;;5132513;27;20456;-50
2023/11/09 04:58:48;;;;;;;0.70;0.50;;;6.90;99.90;;;;;;5130080;27;20421;-50
2023/11/09 05:06:51;;;;;;;1.23;0.50;;;7.10;99.90;;;;;;5131084;27;20413;-53
2023/11/09 05:09:19;;;;;;;1.90;0.60;;;7.20;1.00;;;;;;5131333;27;20415;-53
2023/11/09 05:11:47;;;;;;;1.00;0.50;;;7.20;1.00;;;;;;5131847;27;20399;-51
2023/11/09 05:14:15;;;;;;;0.80;0.50;;;7.10;1.00;;;;;;5129614;27;20498;-54
2023/11/09 05:16:42;;;;;;;0.80;0.50;;;7.10;1.00;;;;;;5130610;27;20914;-53
2023/11/09 05:19:09;;;;;;;0.98;0.60;;;7.10;1.00;;;;;;5130264;27;20426;-51
2023/11/09 05:21:37;;;;;;;0.88;0.50;;;7.10;1.00;;;;;;5129867;27;20487;-51
2023/11/09 05:24:04;;;;;;;1.40;0.50;;;7.20;1.00;;;;;;5129850;27;20414;-50
2023/11/09 05:26:34;;;;;;;0.82;0.40;;;7.10;1.00;;;;;;5130435;27;20922;-51
2023/11/09 05:29:05;;;;;;;0.82;0.50;;;7.10;1.00;;;;;;5131667;27;20810;-52
2023/11/09 05:31:34;;;;;;;0.80;0.50;;;7.10;1.00;;;;;;5132074;27;20884;-52
2023/11/09 05:34:01;;;;;;;1.10;0.55;;;7.00;99.90;;;;;;5131583;27;20425;-51
2023/11/09 05:36:28;;;;;;;0.90;0.50;;;7.10;99.90;;;;;;5130841;27;20562;-49
2023/11/09 05:38:55;;;;;;;1.60;0.50;;;7.10;99.90;;;;;;5131131;27;20418;-51
2023/11/09 05:41:22;;;;;;;1.40;0.50;;;7.10;99.90;;;;;;5130464;27;20434;-52
2023/11/09 05:43:49;;;;;;;0.95;0.50;;;7.10;99.90;;;;;;5130310;27;20418;-51
2023/11/09 05:46:19;;;;;;;1.02;0.50;;;7.00;99.90;;;;;;5130272;27;20783;-53
2023/11/09 05:48:46;;;;;;;0.80;0.50;;;7.00;99.90;;;;;;5130267;27;20512;-54
2023/11/09 05:51:11;;;;;;;1.33;0.50;;;7.00;99.90;;;;;;5130557;27;20985;-52
2023/11/09 05:53:38;;;;;;;1.27;0.70;;;6.90;1.00;;;;;;5130064;27;20471;-52
2023/11/09 05:56:07;;;;;;;1.20;0.50;;;7.00;1.00;;;;;;5130390;27;20478;-53
2023/11/09 05:58:34;;;;;;;1.10;0.60;;;7.00;1.00;;;;;;5129919;27;20445;-54
2023/11/09 06:01:01;;;;;;;0.90;0.50;;;7.00;99.90;;;;;;5129717;27;20918;-48
2023/11/09 06:03:30;;;;;;;0.90;0.50;;;7.00;99.90;;;;;;5129509;27;20450;-52
2023/11/09 06:05:57;;;;;;;1.10;0.50;;;7.10;99.90;;;;;;5131592;27;20500;-62
2023/11/09 06:08:24;;;;;;;1.40;0.60;;;7.20;90.30;;;;;;5136386;27;20849;-65
2023/11/09 06:10:51;;;;;;;1.00;0.50;;;7.20;1.00;;;;;;5128336;27;20475;-65
2023/11/09 06:13:18;;;;;;;0.90;0.50;;;7.20;1.00;;;;;;5128176;27;20434;-65
2023/11/09 06:15:45;;;;;;;1.00;0.60;;;7.20;1.00;;;;;;5125952;27;20566;-65
2023/11/09 06:18:13;;;;;;;1.30;0.50;;;7.20;1.00;;;;;;5129084;28;20895;-65
2023/11/09 06:20:41;;;;;;;0.90;0.52;;;7.30;99.90;;;;;;5129552;27;20517;-65
2023/11/09 06:23:08;;;;;;;1.70;0.60;;;7.30;1.00;;;;;;5130128;27;20422;-65
2023/11/09 06:25:35;;;;;;;0.90;0.50;;;7.40;99.90;;;;;;5129508;27;20434;-65
2023/11/09 06:28:03;;;;;;;1.30;0.50;;;7.40;1.00;;;;;;5133252;27;20419;-65
2023/11/09 06:30:30;;;;;;;0.90;0.50;;;7.40;1.00;;;;;;5130491;27;20426;-65
2023/11/09 06:32:57;;;;;;;1.40;0.50;;;7.50;1.00;;;;;;5132239;27;20415;-65
2023/11/09 06:35:24;;;;;;;1.10;0.60;;;7.50;1.00;;;;;;5133334;27;20783;-65
2023/11/09 06:37:53;;;;;;;0.80;0.43;;;7.50;1.00;;;;;;5129034;27;20602;-65
2023/11/09 06:40:19;;;;;;;0.75;0.50;;;7.50;1.00;;;;;;5128706;27;20438;-65
2023/11/09 06:42:49;;;;;;;2.55;0.50;;;7.50;1.00;;;;;;5131412;27;20426;-65
2023/11/09 06:45:17;;;;;;;1.25;0.60;;;7.50;1.00;;;;;;5132105;27;20513;-65
2023/11/09 06:47:45;;;;;;;1.38;0.50;;;7.50;1.00;;;;;;5130108;27;20418;-65
2023/11/09 06:50:12;;;;;;;0.80;0.60;;;7.50;1.00;;;;;;5129821;27;20432;-65
2023/11/09 06:52:41;;;;;;;0.80;0.50;;;7.50;1.00;;;;;;5130799;27;20471;-65
2023/11/09 06:55:11;;;;;;;1.02;0.52;;;7.50;1.00;;;;;;5129501;27;20514;-65
2023/11/09 06:57:39;;;;;;;0.95;0.50;;;7.50;1.00;;;;;;5128706;27;20432;-65
2023/11/09 07:00:10;;;;;;;1.30;0.60;;;7.50;1.00;;;;;;5130170;27;20421;-64
2023/11/09 07:02:37;;;;;;;2.90;0.60;;;7.60;1.00;;;;;;5133471;27;20436;-64
2023/11/09 07:05:05;;;;;;;3.70;0.70;;;7.70;1.00;;;;;;5131657;27;20759;-64
2023/11/09 07:07:32;;;;;;;1.80;0.50;;;7.70;1.00;;;;;;5130811;27;20777;-64
2023/11/09 07:09:59;;;;;;;1.20;0.40;;;7.70;1.00;;;;;;5130043;27;20791;-62
2023/11/09 07:12:28;;;;;;;0.88;0.50;;;7.80;1.00;;;;;;5127372;27;20406;-64
2023/11/09 07:14:55;;;;;;;1.35;0.50;;;7.80;99.90;;;;;;5128967;27;20497;-64
2023/11/09 07:17:22;;;;;;;0.80;0.40;;;7.90;99.90;;;;;;5126446;27;20765;-64
2023/11/09 07:19:51;;;;;;;0.70;0.40;;;7.80;99.90;;;;;;5127621;27;20744;-64
2023/11/09 07:22:21;;;;;;;0.90;0.43;;;7.80;99.90;;;;;;5126017;27;20460;-64
2023/11/09 07:24:52;;;;;;;0.85;0.60;;;7.90;99.90;;;;;;5127144;27;21140;-64
2023/11/09 07:27:21;;;;;;;0.82;0.55;;;7.90;99.90;;;;;;5125580;27;20418;-62
2023/11/09 07:29:50;;;;;;;0.80;0.50;;;7.90;99.90;;;;;;5124775;27;20737;-61
2023/11/09 07:32:17;;;;;;;1.63;0.50;;;7.80;99.90;;;;;;5125845;27;20426;-62
2023/11/09 07:34:44;;;;;;;0.90;0.40;;;7.90;99.90;;;;;;5124975;27;20487;-60
2023/11/09 07:37:13;;;;;;;1.00;0.50;;;8.00;99.90;;;;;;5125546;27;20434;-59
2023/11/09 07:39:42;;;;;;;1.10;0.50;;;8.10;99.90;;;;;;5124122;27;20429;-59
2023/11/09 07:42:09;;;;;;;2.10;0.50;;;8.20;99.90;;;;;;5126466;27;20513;-60
2023/11/09 07:44:36;;;;;;;0.80;0.40;;;8.40;1.00;;;;;;5126176;27;20429;-60
2023/11/09 07:47:05;;;;;;;0.90;0.30;;;8.60;1.00;;;;;;5125571;27;20479;-59
2023/11/09 07:49:32;;;;;;;0.70;0.30;;;8.90;1.00;;;;;;5125625;27;20434;-59
2023/11/09 07:52:00;;;;;;;1.10;0.30;;;9.00;1.00;;;;;;5124330;27;20430;-60
2023/11/09 07:54:29;;;;;;;0.60;0.30;;;9.10;1.00;;;;;;5125215;27;20418;-60
2023/11/09 07:56:58;;;;;;;1.20;0.30;;;9.20;1.00;;;;;;5124795;27;20422;-59
2023/11/09 07:59:26;;;;;;;0.80;0.30;;;9.30;1.00;;;;;;5125076;27;21040;-59
2023/11/09 08:01:53;;;;;;;0.60;0.30;;;9.40;1.00;;;;;;5124289;27;20422;-60
2023/11/09 08:04:22;;;;;;;0.50;0.30;;;9.40;1.00;;;;;;5123732;27;20918;-60
2023/11/09 08:06:50;;;;;;;0.60;0.30;;;9.30;1.00;;;;;;5125533;27;20426;-60
2023/11/09 08:09:18;;;;;;;0.82;0.30;;;9.30;1.00;;;;;;5125482;27;20422;-59
2023/11/09 08:11:47;;;;;;;0.60;0.30;;;9.20;1.00;;;;;;5123903;27;20809;-59
2023/11/09 08:14:14;;;;;;;0.50;0.30;;;9.20;1.00;;;;;;5123785;27;20518;-59
2023/11/09 08:16:41;;;;;;;0.68;0.30;;;9.20;1.00;;;;;;5125332;27;20426;-59
2023/11/09 08:19:08;;;;;;;0.80;0.30;;;9.20;1.00;;;;;;5127267;27;20418;-60
2023/11/09 08:21:40;;;;;;;1.30;0.40;;;9.20;1.00;;;;;;5124650;27;20426;-60
2023/11/09 08:24:11;;;;;;;0.80;0.40;;;9.20;1.00;;;;;;5121152;27;20650;-59
2023/11/09 08:26:38;;;;;;;1.20;0.30;;;9.20;1.00;;;;;;5121958;27;20703;-59
2023/11/09 08:29:08;;;;;;;0.70;0.30;;;9.20;1.00;;;;;;5122227;27;20422;-60
2023/11/09 08:31:38;;;;;;;0.80;0.40;;;9.30;1.00;;;;;;5123421;27;20418;-59
2023/11/09 08:34:08;;;;;;;0.50;0.30;;;9.30;1.00;;;;;;5125753;27;20479;-59
2023/11/09 08:36:35;;;;;;;1.20;0.38;;;9.50;1.00;;;;;;5123692;27;20454;-59
2023/11/09 08:39:07;;;;;;;0.60;0.30;;;9.50;1.00;;;;;;5123840;27;20509;-58
2023/11/09 08:41:37;;;;;;;1.40;0.30;;;9.60;99.90;;;;;;5121024;27;20423;-60
2023/11/09 08:44:06;;;;;;;0.68;0.30;;;9.60;99.90;;;;;;5122088;27;20430;-60
2023/11/09 08:46:35;;;;;;;0.70;0.40;;;9.60;1.00;;;;;;5121181;27;20903;-59
2023/11/09 08:49:03;;;;;;;0.50;0.30;;;9.60;99.90;;;;;;5122506;27;20433;-60
2023/11/09 08:51:54;;;;;;;0.80;0.40;;;9.60;99.90;;;;;;5124732;27;20423;-59
2023/11/09 08:54:23;;;;;;;0.82;0.40;;;9.60;99.90;;;;;;5124625;27;20583;-57
2023/11/09 08:56:53;;;;;;;0.70;0.40;;;9.60;99.90;;;;;;5123741;27;20782;-59
2023/11/09 08:59:20;;;;;;;0.80;0.40;;;9.50;99.90;;;;;;5123280;27;21602;-58
2023/11/09 09:01:50;;;;;;;1.10;0.50;;;9.60;99.90;;;;;;5122117;27;20781;-58
2023/11/09 09:04:21;;;;;;;1.02;0.40;;;9.70;99.90;;;;;;5123673;27;20525;-58
2023/11/09 09:06:48;;;;;;;0.70;0.40;;;9.80;99.90;;;;;;5120576;27;20733;-60
2023/11/09 09:09:19;;;;;;;4.60;0.60;;;9.80;99.90;;;;;;5122899;27;20407;-58
2023/11/09 09:11:49;;;;;;;0.60;0.30;;;9.80;99.90;;;;;;5122011;27;20695;-60
2023/11/09 09:14:18;;;;;;;0.80;0.40;;;9.90;99.90;;;;;;5121281;27;20842;-60
2023/11/09 09:16:45;;;;;;;1.80;0.30;;;9.90;99.90;;;;;;5122780;27;20977;-59
2023/11/09 09:19:13;;;;;;;1.30;0.40;;;9.80;99.90;;;;;;5123512;27;20426;-60
2023/11/09 09:22:12;;;;;;;0.70;0.40;;;9.80;99.90;;;;;;5123252;27;20422;-60
2023/11/09 09:24:39;;;;;;;0.60;0.40;;;9.80;99.90;;;;;;5125577;27;20422;-60
2023/11/09 09:27:09;;;;;;;0.80;0.40;;;9.70;99.90;;;;;;5123799;27;20422;-60
2023/11/09 09:29:37;;;;;;;0.90;0.40;;;9.70;99.90;;;;;;5126313;27;20756;-61
2023/11/09 09:32:05;;;;;;;1.50;0.40;;;9.70;99.90;;;;;;5124816;27;20422;-60
2023/11/09 09:34:34;;;;;;;0.63;0.40;;;9.80;99.90;;;;;;5124135;27;20426;-61
2023/11/09 09:37:01;;;;;;;0.68;0.40;;;9.80;99.90;;;;;;5126789;27;20430;-61
2023/11/09 09:39:29;;;;;;;0.80;0.40;;;9.90;99.90;;;;;;5124255;27;20423;-59
2023/11/09 09:41:58;;;;;;;0.50;0.30;;;9.90;99.90;;;;;;5123869;27;20426;-60
2023/11/09 09:44:27;;;;;;;0.90;0.60;;;10.00;99.90;;;;;;5125321;27;20505;-59
2023/11/09 09:46:58;;;;;;;0.60;0.40;;;10.00;99.90;;;;;;5123638;27;20800;-60
2023/11/09 09:49:25;;;;;;;1.00;0.40;;;10.10;99.90;;;;;;5123187;27;20442;-60
2023/11/09 09:51:56;;;;;;;1.00;0.40;;;10.10;99.90;;;;;;5121671;27;20958;-59
2023/11/09 09:54:24;;;;;;;0.60;0.30;;;10.10;99.90;;;;;;5123131;27;20799;-60
2023/11/09 09:56:53;;;;;;;0.65;0.40;;;10.20;99.90;;;;;;5121621;27;20511;-61
2023/11/09 09:59:22;;;;;;;0.95;0.40;;;10.20;99.90;;;;;;5125503;27;20438;-61
2023/11/09 10:01:52;;;;;;;0.50;0.30;;;10.30;99.90;;;;;;5128963;27;20433;-61
2023/11/09 10:04:20;;;;;;;0.88;0.40;;;10.40;99.90;;;;;;5128960;27;20422;-62
2023/11/09 10:06:46;;;;;;;0.60;0.30;;;10.40;99.90;;;;;;5128880;27;20875;-60
2023/11/09 10:09:14;;;;;;;0.60;0.30;;;10.50;99.90;;;;;;5128935;27;20414;-59
2023/11/09 10:11:42;;;;;;;0.70;0.30;;;10.60;99.90;;;;;;5128879;27;20749;-60
2023/11/09 10:14:11;;;;;;;0.68;0.28;;;10.70;99.90;;;;;;5127206;27;20433;-59
2023/11/09 10:16:38;;;;;;;0.50;0.30;;;10.80;99.90;;;;;;5129540;27;20761;-60
2023/11/09 10:19:08;;;;;;;0.50;0.30;;;10.80;99.90;;;;;;5129520;27;20738;-60
2023/11/09 10:21:35;;;;;;;0.60;0.30;;;10.80;99.90;;;;;;5128713;27;20431;-59
2023/11/09 10:24:03;;;;;;;4.77;0.33;;;10.90;99.90;;;;;;5129648;27;20594;-66
2023/11/09 10:26:40;;;;;;;0.40;0.20;;;10.90;99.90;;;;;;5129913;27;20426;-66
2023/11/09 10:29:11;;;;;;;0.60;0.30;;;11.00;99.90;;;;;;5130066;27;20818;-66
2023/11/09 10:31:38;;;;;;;1.00;0.38;;;11.20;99.90;;;;;;5117319;27;20426;-68
2023/11/09 10:34:11;;;;;;;0.50;0.20;;;11.30;99.90;;;;;;5129426;27;20490;-69
2023/11/09 10:36:39;;;;;;;0.60;0.30;;;11.30;99.90;;;;;;5128392;27;20738;-67
2023/11/09 10:39:16;;;;;;;0.40;0.20;;;11.50;99.90;;;;;;5129330;27;20461;-67
2023/11/09 10:41:48;;;;;;;0.50;0.20;;;11.50;99.90;;;;;;5128058;27;20738;-67
2023/11/09 10:44:22;;;;;;;1.30;0.30;;;11.50;99.90;;;;;;5129524;27;20437;-67
2023/11/09 10:46:53;;;;;;;2.20;0.30;;;11.50;99.90;;;;;;5130118;27;20418;-66
2023/11/09 10:49:29;;;;;;;0.50;0.20;;;11.50;99.90;;;;;;5128906;27;20509;-64
2023/11/09 10:51:59;;;;;;;0.60;0.20;;;11.60;99.90;;;;;;5127374;27;20713;-67
2023/11/09 10:54:29;;;;;;;1.60;0.20;;;11.60;99.90;;;;;;5126756;27;20491;-68
2023/11/09 10:56:56;;;;;;;0.50;0.20;;;11.70;99.90;;;;;;5129027;27;20841;-67
2023/11/09 10:59:24;;;;;;;1.80;0.20;;;11.70;99.90;;;;;;5127836;27;20438;-66
2023/11/09 11:01:55;;;;;;;0.50;0.20;;;11.70;99.90;;;;;;5127404;27;20453;-66
2023/11/09 11:04:27;;;;;;;0.40;0.25;;;11.80;99.90;;;;;;5126910;27;20429;-66
2023/11/09 11:06:56;;;;;;;0.50;0.20;;;11.70;99.90;;;;;;5128215;27;20868;-66
2023/11/09 11:09:26;;;;;;;0.70;0.30;;;11.80;99.90;;;;;;5121426;27;20838;-65
2023/11/09 11:11:58;;;;;;;0.80;0.38;;;12.00;99.90;;;;;;5126007;27;20423;-66
2023/11/09 11:14:27;;;;;;;0.55;0.20;;;12.20;99.90;;;;;;5127963;27;20728;-66
2023/11/09 11:17:25;;;;;;;0.60;0.20;;;12.30;99.90;;;;;;5127400;27;20497;-67
2023/11/09 11:20:37;;;;;;;0.40;0.20;;;12.40;99.90;;;;;;5128450;27;20772;-67
2023/11/09 11:23:25;;;;;;;0.55;0.20;;;12.40;99.90;;;;;;5125846;27;20479;-67
2023/11/09 11:25:58;;;;;;;0.40;0.20;;;12.50;99.90;;;;;;5118836;27;20422;-67
2023/11/09 11:28:27;;;;;;;0.50;0.20;;;12.60;99.90;;;;;;5125671;27;20511;-67
2023/11/09 11:30:59;;;;;;;0.50;0.20;;;12.70;99.90;;;;;;5128571;27;20663;-65
2023/11/09 11:33:26;;;;;;;0.60;0.30;;;12.70;99.90;;;;;;5125713;27;20414;-64
2023/11/09 11:35:56;;;;;;;0.50;0.30;;;12.70;99.90;;;;;;5124983;27;20891;-66
2023/11/09 11:38:26;;;;;;;0.50;0.30;;;12.70;99.90;;;;;;5127505;27;20553;-66
2023/11/09 11:41:00;;;;;;;0.40;0.20;;;12.50;99.90;;;;;;5127546;27;20438;-66
2023/11/09 11:43:37;;;;;;;0.50;0.20;;;12.50;99.90;;;;;;5126834;27;20486;-66
2023/11/09 11:46:08;;;;;;;0.90;0.20;;;12.50;99.90;;;;;;5125553;27;20483;-67
2023/11/09 11:48:36;;;;;;;0.50;0.20;;;12.60;99.90;;;;;;5123672;27;20434;-67
2023/11/09 11:51:07;;;;;;;0.50;0.30;;;12.50;99.90;;;;;;5126026;27;20429;-66
2023/11/09 11:53:35;;;;;;;0.50;0.20;;;12.50;99.90;;;;;;5128600;27;20509;-66
2023/11/09 11:56:10;;;;;;;0.40;0.20;;;12.50;99.90;;;;;;5125958;27;20470;-66
2023/11/09 11:58:48;;;;;;;0.40;0.20;;;12.50;99.90;;;;;;5125791;27;20430;-66
2023/11/09 12:01:20;;;;;;;0.70;0.20;;;12.50;99.90;;;;;;5126505;27;20514;-67
2023/11/09 12:03:52;;;;;;;0.40;0.20;;;12.50;99.90;;;;;;5126874;27;20433;-57
2023/11/09 12:06:24;;;;;;;0.60;0.20;;;12.50;99.90;;;;;;5125939;27;20726;-58
2023/11/09 12:08:55;;;;;;;0.60;0.20;;;12.50;99.90;;;;;;5127218;27;20517;-57
2023/11/09 12:11:25;;;;;;;0.40;0.20;;;12.50;99.90;;;;;;5107900;27;20723;-57
2023/11/09 12:13:54;;;;;;;0.40;0.20;;;12.70;99.90;;;;;;5127397;27;20906;-58
2023/11/09 12:16:24;;;;;;;0.40;0.20;;;12.70;99.90;;;;;;5128765;27;20426;-57
2023/11/09 12:18:52;;;;;;;0.47;0.20;;;12.80;99.90;;;;;;5125238;27;20423;-58
2023/11/09 12:21:22;;;;;;;0.40;0.20;;;12.90;99.90;;;;;;5138105;27;20428;-57
2023/11/09 12:23:53;;;;;;;0.40;0.20;;;13.00;99.90;;;;;;5133912;27;20475;-56
2023/11/09 12:26:21;;;;;;;0.68;0.20;;;13.00;99.90;;;;;;5128303;27;20479;-58
2023/11/09 12:28:49;;;;;;;0.40;0.20;;;13.20;99.90;;;;;;5128406;27;20430;-58
2023/11/09 12:31:16;;;;;;;0.40;0.10;;;13.40;99.90;;;;;;5128128;27;20789;-57
2023/11/09 12:34:03;;;;;;;0.70;0.10;;;13.40;99.90;;;;;;5128388;27;20479;-57
2023/11/09 12:36:32;;;;;;;0.40;0.20;;;13.30;99.90;;;;;;5127886;27;20842;-58
2023/11/09 12:38:59;;;;;;;0.30;0.10;;;13.30;99.90;;;;;;5129647;27;20414;-58
2023/11/09 12:41:31;;;;;;;0.50;0.10;;;13.20;99.90;;;;;;5128275;27;20458;-58
2023/11/09 12:43:58;;;;;;;0.30;0.10;;;13.20;99.90;;;;;;5126963;27;20426;-58
2023/11/09 12:46:25;;;;;;;0.32;0.10;;;13.30;99.90;;;;;;5113846;27;20472;-56
2023/11/09 12:48:58;;;;;;;0.30;0.10;;;13.40;99.90;;;;;;5128446;27;20419;-58
2023/11/09 12:51:26;;;;;;;0.30;0.10;;;13.50;99.90;;;;;;5127596;27;20431;-57
2023/11/09 12:53:56;;;;;;;0.30;0.10;;;13.40;99.90;;;;;;5127785;27;20464;-58
2023/11/09 12:56:24;;;;;;;0.30;0.10;;;13.30;99.90;;;;;;5124719;27;20434;-58
2023/11/09 12:58:52;;;;;;;0.30;0.10;;;13.10;99.90;;;;;;5125959;27;20441;-58
2023/11/09 13:01:20;;;;;;;0.30;0.10;;;13.30;99.90;;;;;;5125703;27;20437;-58
2023/11/09 13:03:48;;;;;;;0.30;0.10;;;13.20;99.90;;;;;;5125843;27;20503;-58
2023/11/09 13:06:22;;;;;;;0.50;0.10;;;13.10;99.90;;;;;;5125882;27;20872;-58
2023/11/09 13:08:49;;;;;;;0.40;0.20;;;13.00;99.90;;;;;;5125664;27;20470;-57
2023/11/09 13:11:23;;;;;;;0.30;0.15;;;13.00;99.90;;;;;;5127564;27;20606;-58
2023/11/09 13:14:07;;;;;;;0.60;0.20;;;13.00;99.90;;;;;;5126119;27;20422;-59
2023/11/09 13:16:35;;;;;;;0.30;0.10;;;13.00;99.90;;;;;;5125667;27;20561;-59